sensor_id;sensor_type;location;lat;lon;timestamp;pressure;altitude;pressure_sealevel;temperature;humidity
76086;BME280;64791;0.000;0.000;2024-02-21T00:01:23;94431.97;;;4.62;63.16
76086;BME280;64791;0.000;0.000;2024-02-21T00:03:48;94436.69;;;4.62;62.92
76086;BME280;64791;0.000;0.000;2024-02-21T00:06:14;94436.19;;;4.58;63.13
76086;BME280;64791;0.000;0.000;2024-02-21T00:08:40;94435.44;;;4.57;63.53
76086;BME280;64791;0.000;0.000;2024-02-21T00:11:05;94436.44;;;4.60;62.99
76086;BME280;64791;0.000;0.000;2024-02-21T00:13:32;94427.00;;;4.61;63.29
76086;BME280;64791;0.000;0.000;2024-02-21T00:15:59;94433.19;;;4.61;63.26
76086;BME280;64791;0.000;0.000;2024-02-21T00:18:25;94437.44;;;4.62;63.25
76086;BME280;64791;0.000;0.000;2024-02-21T00:20:51;94436.94;;;4.64;63.10
76086;BME280;64791;0.000;0.000;2024-02-21T00:23:17;94432.69;;;4.63;63.34
76086;BME280;64791;0.000;0.000;2024-02-21T00:25:42;94434.19;;;4.64;63.27
76086;BME280;64791;0.000;0.000;2024-02-21T00:28:08;94428.50;;;4.56;63.38
76086;BME280;64791;0.000;0.000;2024-02-21T00:30:33;94430.72;;;4.58;63.50
76086;BME280;64791;0.000;0.000;2024-02-21T00:32:59;94428.97;;;4.55;63.45
76086;BME280;64791;0.000;0.000;2024-02-21T00:35:25;94427.50;;;4.54;63.70
76086;BME280;64791;0.000;0.000;2024-02-21T00:37:51;94427.50;;;4.59;63.59
76086;BME280;64791;0.000;0.000;2024-02-21T00:40:17;94424.25;;;4.61;63.51
76086;BME280;64791;0.000;0.000;2024-02-21T00:42:45;94426.50;;;4.62;63.19
76086;BME280;64791;0.000;0.000;2024-02-21T00:45:11;94432.19;;;4.59;63.44
76086;BME280;64791;0.000;0.000;2024-02-21T00:47:37;94432.44;;;4.61;63.01
76086;BME280;64791;0.000;0.000;2024-02-21T00:50:03;94431.72;;;4.60;63.00
76086;BME280;64791;0.000;0.000;2024-02-21T00:52:28;94430.25;;;4.65;63.05
76086;BME280;64791;0.000;0.000;2024-02-21T00:54:54;94425.50;;;4.60;63.30
76086;BME280;64791;0.000;0.000;2024-02-21T00:57:20;94426.00;;;4.58;63.12
76086;BME280;64791;0.000;0.000;2024-02-21T00:59:46;94426.25;;;4.60;63.05
76086;BME280;64791;0.000;0.000;2024-02-21T01:02:11;94421.53;;;4.55;63.24
76086;BME280;64791;0.000;0.000;2024-02-21T01:04:37;94421.03;;;4.51;63.30
76086;BME280;64791;0.000;0.000;2024-02-21T01:07:03;94418.81;;;4.50;63.60
76086;BME280;64791;0.000;0.000;2024-02-21T01:09:29;94411.34;;;4.50;63.38
76086;BME280;64791;0.000;0.000;2024-02-21T01:11:54;94417.31;;;4.49;63.33
76086;BME280;64791;0.000;0.000;2024-02-21T01:14:20;94400.91;;;4.49;63.33
76086;BME280;64791;0.000;0.000;2024-02-21T01:16:46;94402.91;;;4.48;63.49
76086;BME280;64791;0.000;0.000;2024-02-21T01:19:12;94403.91;;;4.45;63.44
76086;BME280;64791;0.000;0.000;2024-02-21T01:21:37;94402.41;;;4.44;63.51
76086;BME280;64791;0.000;0.000;2024-02-21T01:24:03;94401.41;;;4.41;63.24
76086;BME280;64791;0.000;0.000;2024-02-21T01:26:29;94393.22;;;4.41;63.42
76086;BME280;64791;0.000;0.000;2024-02-21T01:28:54;94387.03;;;4.41;63.40
76086;BME280;64791;0.000;0.000;2024-02-21T01:31:20;94395.69;;;4.39;63.72
76086;BME280;64791;0.000;0.000;2024-02-21T01:33:45;94396.19;;;4.38;63.35
76086;BME280;64791;0.000;0.000;2024-02-21T01:36:11;94392.22;;;4.33;63.64
76086;BME280;64791;0.000;0.000;2024-02-21T01:38:37;94395.94;;;4.36;63.60
76086;BME280;64791;0.000;0.000;2024-02-21T01:41:02;94392.22;;;4.39;63.36
76086;BME280;64791;0.000;0.000;2024-02-21T01:43:28;94390.47;;;4.41;63.40
76086;BME280;64791;0.000;0.000;2024-02-21T01:45:57;94386.03;;;4.38;63.53
76086;BME280;64791;0.000;0.000;2024-02-21T01:48:23;94381.28;;;4.39;63.35
76086;BME280;64791;0.000;0.000;2024-02-21T01:50:48;94379.81;;;4.38;63.16
76086;BME280;64791;0.000;0.000;2024-02-21T01:53:30;94376.34;;;4.37;63.35
76086;BME280;64791;0.000;0.000;2024-02-21T01:55:56;94383.28;;;4.38;63.31
76086;BME280;64791;0.000;0.000;2024-02-21T01:58:22;94382.78;;;4.40;63.33
76086;BME280;64791;0.000;0.000;2024-02-21T02:00:49;94377.34;;;4.40;63.17
76086;BME280;64791;0.000;0.000;2024-02-21T02:03:15;94377.06;;;4.43;63.28
76086;BME280;64791;0.000;0.000;2024-02-21T02:05:44;94384.28;;;4.35;63.43
76086;BME280;64791;0.000;0.000;2024-02-21T02:08:17;94378.56;;;4.33;63.37
76086;BME280;64791;0.000;0.000;2024-02-21T02:10:43;94381.31;;;4.28;63.71
76086;BME280;64791;0.000;0.000;2024-02-21T02:13:09;94377.31;;;4.29;63.53
76086;BME280;64791;0.000;0.000;2024-02-21T02:15:39;94375.34;;;4.29;63.60
76086;BME280;64791;0.000;0.000;2024-02-21T02:18:05;94375.84;;;4.28;63.50
76086;BME280;64791;0.000;0.000;2024-02-21T02:20:30;94377.56;;;4.31;63.56
76086;BME280;64791;0.000;0.000;2024-02-21T02:22:56;94374.84;;;4.31;63.67
76086;BME280;64791;0.000;0.000;2024-02-21T02:25:23;94374.38;;;4.32;63.32
76086;BME280;64791;0.000;0.000;2024-02-21T02:27:48;94379.06;;;4.32;63.32
76086;BME280;64791;0.000;0.000;2024-02-21T02:30:14;94377.56;;;4.31;63.49
76086;BME280;64791;0.000;0.000;2024-02-21T02:32:43;94370.84;;;4.26;63.62
76086;BME280;64791;0.000;0.000;2024-02-21T02:35:09;94372.38;;;4.27;63.66
76086;BME280;64791;0.000;0.000;2024-02-21T02:37:35;94373.59;;;4.26;63.87
76086;BME280;64791;0.000;0.000;2024-02-21T02:40:00;94369.38;;;4.25;63.66
76086;BME280;64791;0.000;0.000;2024-02-21T02:42:26;94372.13;;;4.25;63.65
76086;BME280;64791;0.000;0.000;2024-02-21T02:44:52;94367.66;;;4.28;63.40
76086;BME280;64791;0.000;0.000;2024-02-21T02:47:17;94366.16;;;4.27;63.15
76086;BME280;64791;0.000;0.000;2024-02-21T02:49:43;94367.41;;;4.26;63.62
76086;BME280;64791;0.000;0.000;2024-02-21T02:52:10;94365.66;;;4.23;63.54
76086;BME280;64791;0.000;0.000;2024-02-21T02:54:35;94353.22;;;4.22;63.41
76086;BME280;64791;0.000;0.000;2024-02-21T02:57:01;94361.41;;;4.22;63.52
76086;BME280;64791;0.000;0.000;2024-02-21T02:59:28;94363.91;;;4.20;63.45
76086;BME280;64791;0.000;0.000;2024-02-21T03:01:54;94358.69;;;4.16;63.76
76086;BME280;64791;0.000;0.000;2024-02-21T03:04:20;94360.19;;;4.17;63.79
76086;BME280;64791;0.000;0.000;2024-02-21T03:06:46;94363.41;;;4.16;63.73
76086;BME280;64791;0.000;0.000;2024-02-21T03:09:11;94368.38;;;4.23;63.46
76086;BME280;64791;0.000;0.000;2024-02-21T03:11:37;94366.88;;;4.22;63.49
76086;BME280;64791;0.000;0.000;2024-02-21T03:14:06;94368.38;;;4.23;63.44
76086;BME280;64791;0.000;0.000;2024-02-21T03:16:31;94374.09;;;4.19;63.55
76086;BME280;64791;0.000;0.000;2024-02-21T03:18:57;94374.31;;;4.16;63.76
76086;BME280;64791;0.000;0.000;2024-02-21T03:21:22;94378.06;;;4.18;63.42
76086;BME280;64791;0.000;0.000;2024-02-21T03:23:48;94379.56;;;4.19;63.58
76086;BME280;64791;0.000;0.000;2024-02-21T03:26:14;94384.50;;;4.21;63.21
76086;BME280;64791;0.000;0.000;2024-02-21T03:28:42;94385.25;;;4.21;63.12
76086;BME280;64791;0.000;0.000;2024-02-21T03:31:11;94385.00;;;4.19;63.35
76086;BME280;64791;0.000;0.000;2024-02-21T03:33:36;94382.50;;;4.16;63.29
76086;BME280;64791;0.000;0.000;2024-02-21T03:36:02;94388.47;;;4.20;63.37
76086;BME280;64791;0.000;0.000;2024-02-21T03:38:28;94387.00;;;4.19;63.24
76086;BME280;64791;0.000;0.000;2024-02-21T03:40:54;94389.22;;;4.15;63.59
76086;BME280;64791;0.000;0.000;2024-02-21T03:43:19;94387.97;;;4.16;63.48
76086;BME280;64791;0.000;0.000;2024-02-21T03:45:45;94391.19;;;4.14;63.38
76086;BME280;64791;0.000;0.000;2024-02-21T03:48:11;94392.69;;;4.15;63.54
76086;BME280;64791;0.000;0.000;2024-02-21T03:50:36;94389.22;;;4.15;63.53
76086;BME280;64791;0.000;0.000;2024-02-21T03:53:02;94392.69;;;4.15;63.45
76086;BME280;64791;0.000;0.000;2024-02-21T03:55:28;94395.16;;;4.13;63.54
76086;BME280;64791;0.000;0.000;2024-02-21T03:57:53;94397.16;;;4.13;63.58
76086;BME280;64791;0.000;0.000;2024-02-21T04:00:19;94397.63;;;4.11;63.76
76086;BME280;64791;0.000;0.000;2024-02-21T04:02:45;94394.91;;;4.11;63.63
76086;BME280;64791;0.000;0.000;2024-02-21T04:05:11;94397.41;;;4.15;63.44
76086;BME280;64791;0.000;0.000;2024-02-21T04:07:37;94394.91;;;4.11;63.37
76086;BME280;64791;0.000;0.000;2024-02-21T04:10:03;94396.44;;;4.23;63.55
76086;BME280;64791;0.000;0.000;2024-02-21T04:12:28;94390.72;;;4.43;63.25
76086;BME280;64791;0.000;0.000;2024-02-21T04:14:54;94390.75;;;4.66;62.91
76086;BME280;64791;0.000;0.000;2024-02-21T04:17:19;94389.50;;;4.78;62.84
76086;BME280;64791;0.000;0.000;2024-02-21T04:19:45;94386.06;;;4.88;62.58
76086;BME280;64791;0.000;0.000;2024-02-21T04:22:11;94386.53;;;4.98;62.47
76086;BME280;64791;0.000;0.000;2024-02-21T04:24:36;94392.47;;;5.02;62.72
76086;BME280;64791;0.000;0.000;2024-02-21T04:27:02;94394.97;;;5.05;62.72
76086;BME280;64791;0.000;0.000;2024-02-21T04:29:28;94386.75;;;5.11;62.67
76086;BME280;64791;0.000;0.000;2024-02-21T04:31:54;94394.22;;;5.16;62.76
76086;BME280;64791;0.000;0.000;2024-02-21T04:34:19;94391.72;;;5.18;62.84
76086;BME280;64791;0.000;0.000;2024-02-21T04:36:45;94387.72;;;5.19;62.76
76086;BME280;64791;0.000;0.000;2024-02-21T04:39:10;94395.41;;;5.26;62.86
76086;BME280;64791;0.000;0.000;2024-02-21T04:41:37;94391.94;;;5.31;62.68
76086;BME280;64791;0.000;0.000;2024-02-21T04:44:02;94395.41;;;5.37;62.52
76086;BME280;64791;0.000;0.000;2024-02-21T04:46:29;94393.38;;;5.43;62.59
76086;BME280;64791;0.000;0.000;2024-02-21T04:48:55;94393.88;;;5.47;62.54
76086;BME280;64791;0.000;0.000;2024-02-21T04:51:22;94388.88;;;5.51;62.25
76086;BME280;64791;0.000;0.000;2024-02-21T04:53:48;94398.84;;;5.54;62.32
76086;BME280;64791;0.000;0.000;2024-02-21T04:56:14;94391.38;;;5.55;61.90
76086;BME280;64791;0.000;0.000;2024-02-21T04:58:40;94399.06;;;5.56;62.00
76086;BME280;64791;0.000;0.000;2024-02-21T05:01:06;94399.31;;;5.58;61.92
76086;BME280;64791;0.000;0.000;2024-02-21T05:03:33;94404.78;;;5.58;61.75
76086;BME280;64791;0.000;0.000;2024-02-21T05:05:59;94397.56;;;5.61;61.82
76086;BME280;64791;0.000;0.000;2024-02-21T05:08:24;94394.81;;;5.61;61.77
76086;BME280;64791;0.000;0.000;2024-02-21T05:10:49;94396.06;;;5.60;61.96
76086;BME280;64791;0.000;0.000;2024-02-21T05:13:15;94395.59;;;5.61;61.77
76086;BME280;64791;0.000;0.000;2024-02-21T05:15:41;94387.38;;;5.61;61.88
76086;BME280;64791;0.000;0.000;2024-02-21T05:18:07;94384.88;;;5.63;61.79
76086;BME280;64791;0.000;0.000;2024-02-21T05:20:33;94394.56;;;5.70;61.58
76086;BME280;64791;0.000;0.000;2024-02-21T05:22:59;94399.50;;;5.71;61.74
76086;BME280;64791;0.000;0.000;2024-02-21T05:25:24;94394.28;;;5.73;61.38
76086;BME280;64791;0.000;0.000;2024-02-21T05:27:51;94396.03;;;5.71;61.49
76086;BME280;64791;0.000;0.000;2024-02-21T05:30:18;94396.06;;;5.65;61.59
76086;BME280;64791;0.000;0.000;2024-02-21T05:32:44;94401.56;;;5.54;61.88
76086;BME280;64791;0.000;0.000;2024-02-21T05:35:10;94404.81;;;5.47;61.84
76086;BME280;64791;0.000;0.000;2024-02-21T05:37:35;94406.81;;;5.41;62.14
76086;BME280;64791;0.000;0.000;2024-02-21T05:40:01;94409.31;;;5.34;62.35
76086;BME280;64791;0.000;0.000;2024-02-21T05:42:26;94401.38;;;5.30;62.40
76086;BME280;64791;0.000;0.000;2024-02-21T05:44:52;94418.06;;;5.27;62.42
76086;BME280;64791;0.000;0.000;2024-02-21T05:47:18;94414.81;;;5.23;62.67
76086;BME280;64791;0.000;0.000;2024-02-21T05:49:45;94423.78;;;5.17;62.66
76086;BME280;64791;0.000;0.000;2024-02-21T05:52:11;94418.56;;;5.14;62.94
76086;BME280;64791;0.000;0.000;2024-02-21T05:54:37;94420.03;;;5.15;63.17
76086;BME280;64791;0.000;0.000;2024-02-21T05:57:04;94419.81;;;5.13;62.94
76086;BME280;64791;0.000;0.000;2024-02-21T05:59:30;94427.50;;;5.14;62.78
76086;BME280;64791;0.000;0.000;2024-02-21T06:01:59;94428.25;;;5.15;62.94
76086;BME280;64791;0.000;0.000;2024-02-21T06:04:24;94434.47;;;5.15;62.75
76086;BME280;64791;0.000;0.000;2024-02-21T06:06:50;94429.75;;;5.16;62.68
76086;BME280;64791;0.000;0.000;2024-02-21T06:09:15;94430.00;;;5.18;62.74
76086;BME280;64791;0.000;0.000;2024-02-21T06:11:40;94433.97;;;5.23;62.69
76086;BME280;64791;0.000;0.000;2024-02-21T06:14:06;94435.19;;;5.27;62.44
76086;BME280;64791;0.000;0.000;2024-02-21T06:16:32;94444.63;;;5.32;62.47
76086;BME280;64791;0.000;0.000;2024-02-21T06:18:58;94440.16;;;5.34;62.54
76086;BME280;64791;0.000;0.000;2024-02-21T06:21:24;94438.66;;;5.39;62.37
76086;BME280;64791;0.000;0.000;2024-02-21T06:23:54;94454.03;;;5.47;62.40
76086;BME280;64791;0.000;0.000;2024-02-21T06:26:20;94451.31;;;5.53;62.39
76086;BME280;64791;0.000;0.000;2024-02-21T06:28:45;94453.50;;;5.60;62.34
76086;BME280;64791;0.000;0.000;2024-02-21T06:31:12;94456.97;;;5.66;62.28
76086;BME280;64791;0.000;0.000;2024-02-21T06:33:38;94451.03;;;5.67;62.17
76086;BME280;64791;0.000;0.000;2024-02-21T06:36:04;94460.94;;;5.70;62.00
76086;BME280;64791;0.000;0.000;2024-02-21T06:38:29;94458.44;;;5.72;62.29
76086;BME280;64791;0.000;0.000;2024-02-21T06:40:55;94465.19;;;5.71;61.97
76086;BME280;64791;0.000;0.000;2024-02-21T06:43:21;94456.47;;;5.73;61.98
76086;BME280;64791;0.000;0.000;2024-02-21T06:45:46;94466.38;;;5.81;61.94
76086;BME280;64791;0.000;0.000;2024-02-21T06:48:19;94473.28;;;5.99;61.63
76086;BME280;64791;0.000;0.000;2024-02-21T06:50:45;94469.53;;;6.08;61.37
76086;BME280;64791;0.000;0.000;2024-02-21T06:53:10;94466.50;;;6.17;60.93
76086;BME280;64791;0.000;0.000;2024-02-21T06:55:36;94465.47;;;6.25;61.07
76086;BME280;64791;0.000;0.000;2024-02-21T06:58:02;94471.16;;;6.33;61.31
76086;BME280;64791;0.000;0.000;2024-02-21T07:00:28;94473.59;;;6.42;60.98
76086;BME280;64791;0.000;0.000;2024-02-21T07:02:54;94477.78;;;6.48;60.84
76086;BME280;64791;0.000;0.000;2024-02-21T07:05:20;94478.25;;;6.58;60.64
76086;BME280;64791;0.000;0.000;2024-02-21T07:07:45;94481.69;;;6.64;60.56
76086;BME280;64791;0.000;0.000;2024-02-21T07:10:11;94476.63;;;6.73;60.07
76086;BME280;64791;0.000;0.000;2024-02-21T07:12:36;94473.81;;;6.85;60.39
76086;BME280;64791;0.000;0.000;2024-02-21T07:15:07;94479.22;;;6.96;60.46
76086;BME280;64791;0.000;0.000;2024-02-21T07:17:33;94470.69;;;7.05;59.90
76086;BME280;64791;0.000;0.000;2024-02-21T07:19:58;94474.31;;;7.18;59.97
76086;BME280;64791;0.000;0.000;2024-02-21T07:22:25;94475.22;;;7.32;59.73
76086;BME280;64791;0.000;0.000;2024-02-21T07:24:50;94480.34;;;7.46;59.28
76086;BME280;64791;0.000;0.000;2024-02-21T07:27:16;94482.28;;;7.52;59.31
76086;BME280;64791;0.000;0.000;2024-02-21T07:29:42;94491.44;;;7.60;59.01
76086;BME280;64791;0.000;0.000;2024-02-21T07:32:08;94473.66;;;7.66;59.16
76086;BME280;64791;0.000;0.000;2024-02-21T07:34:34;94474.56;;;7.74;59.19
76086;BME280;64791;0.000;0.000;2024-02-21T07:36:59;94482.75;;;7.80;59.28
76086;BME280;64791;0.000;0.000;2024-02-21T07:39:25;94478.19;;;7.88;59.00
76086;BME280;64791;0.000;0.000;2024-02-21T07:41:50;94476.09;;;7.94;58.86
76086;BME280;64791;0.000;0.000;2024-02-21T07:44:16;94477.53;;;8.00;58.60
76086;BME280;64791;0.000;0.000;2024-02-21T07:46:41;94476.66;;;8.11;58.59
76086;BME280;64791;0.000;0.000;2024-02-21T07:49:07;94488.28;;;8.22;58.63
76086;BME280;64791;0.000;0.000;2024-02-21T07:51:32;94480.41;;;8.32;58.31
76086;BME280;64791;0.000;0.000;2024-02-21T07:53:58;94474.84;;;8.38;58.37
76086;BME280;64791;0.000;0.000;2024-02-21T07:56:24;94477.94;;;8.47;58.40
76086;BME280;64791;0.000;0.000;2024-02-21T07:58:53;94477.91;;;8.53;58.35
76086;BME280;64791;0.000;0.000;2024-02-21T08:01:19;94477.06;;;8.58;58.17
76086;BME280;64791;0.000;0.000;2024-02-21T08:03:47;94476.25;;;8.63;58.73
76086;BME280;64791;0.000;0.000;2024-02-21T08:06:13;94477.66;;;8.69;58.17
76086;BME280;64791;0.000;0.000;2024-02-21T08:08:39;94482.56;;;8.76;58.19
76086;BME280;64791;0.000;0.000;2024-02-21T08:11:05;94474.97;;;8.82;58.22
76086;BME280;64791;0.000;0.000;2024-02-21T08:13:30;94482.63;;;8.89;57.96
76086;BME280;64791;0.000;0.000;2024-02-21T08:15:56;94471.47;;;9.00;58.37
76086;BME280;64791;0.000;0.000;2024-02-21T08:18:22;94472.69;;;9.18;57.72
76086;BME280;64791;0.000;0.000;2024-02-21T08:20:48;94473.28;;;9.30;58.03
76086;BME280;64791;0.000;0.000;2024-02-21T08:23:18;94469.16;;;9.36;57.41
76086;BME280;64791;0.000;0.000;2024-02-21T08:25:43;94472.13;;;9.38;57.89
76086;BME280;64791;0.000;0.000;2024-02-21T08:28:09;94467.38;;;9.39;57.89
76086;BME280;64791;0.000;0.000;2024-02-21T08:30:35;94466.63;;;9.38;57.97
76086;BME280;64791;0.000;0.000;2024-02-21T08:33:01;94461.88;;;9.39;57.99
76086;BME280;64791;0.000;0.000;2024-02-21T08:35:27;94463.56;;;9.42;58.21
76086;BME280;64791;0.000;0.000;2024-02-21T08:37:53;94464.13;;;9.53;57.80
76086;BME280;64791;0.000;0.000;2024-02-21T08:40:18;94466.03;;;9.58;57.46
76086;BME280;64791;0.000;0.000;2024-02-21T08:42:46;94472.72;;;9.63;57.49
76086;BME280;64791;0.000;0.000;2024-02-21T08:45:12;94467.66;;;9.67;57.31
76086;BME280;64791;0.000;0.000;2024-02-21T08:47:41;94473.88;;;9.67;57.25
76086;BME280;64791;0.000;0.000;2024-02-21T08:50:07;94465.63;;;9.67;57.59
76086;BME280;64791;0.000;0.000;2024-02-21T08:52:33;94465.75;;;9.75;57.38
76086;BME280;64791;0.000;0.000;2024-02-21T08:54:58;94470.94;;;9.78;57.29
76086;BME280;64791;0.000;0.000;2024-02-21T08:57:24;94465.22;;;9.76;57.45
76086;BME280;64791;0.000;0.000;2024-02-21T08:59:50;94469.97;;;9.76;57.43
76086;BME280;64791;0.000;0.000;2024-02-21T09:02:16;94468.16;;;9.78;57.84
76086;BME280;64791;0.000;0.000;2024-02-21T09:04:42;94472.31;;;9.85;57.74
76086;BME280;64791;0.000;0.000;2024-02-21T09:07:09;94465.44;;;9.92;57.32
76086;BME280;64791;0.000;0.000;2024-02-21T09:09:35;94463.00;;;10.01;57.23
76086;BME280;64791;0.000;0.000;2024-02-21T09:12:01;94457.03;;;10.10;57.39
76086;BME280;64791;0.000;0.000;2024-02-21T09:14:31;94461.50;;;10.13;56.89
76086;BME280;64791;0.000;0.000;2024-02-21T09:16:57;94458.75;;;10.13;57.29
76086;BME280;64791;0.000;0.000;2024-02-21T09:19:22;94466.91;;;10.19;57.20
76086;BME280;64791;0.000;0.000;2024-02-21T09:21:48;94466.97;;;10.52;56.53
76086;BME280;64791;0.000;0.000;2024-02-21T09:24:14;94467.81;;;10.74;56.34
76086;BME280;64791;0.000;0.000;2024-02-21T09:26:40;94463.31;;;10.84;56.00
76086;BME280;64791;0.000;0.000;2024-02-21T09:29:06;94469.75;;;11.20;55.43
76086;BME280;64791;0.000;0.000;2024-02-21T09:31:32;94463.00;;;11.28;55.29
76086;BME280;64791;0.000;0.000;2024-02-21T09:33:57;94464.38;;;11.35;55.12
76086;BME280;64791;0.000;0.000;2024-02-21T09:36:23;94460.34;;;11.36;55.42
76086;BME280;64791;0.000;0.000;2024-02-21T09:38:49;94462.91;;;11.34;55.12
76086;BME280;64791;0.000;0.000;2024-02-21T09:41:15;94464.03;;;11.39;55.34
76086;BME280;64791;0.000;0.000;2024-02-21T09:43:44;94460.94;;;11.42;55.20
76086;BME280;64791;0.000;0.000;2024-02-21T09:46:17;94461.88;;;11.45;55.25
76086;BME280;64791;0.000;0.000;2024-02-21T09:51:30;94470.41;;;11.54;55.59
76086;BME280;64791;0.000;0.000;2024-02-21T09:53:57;94464.38;;;11.56;55.47
76086;BME280;64791;0.000;0.000;2024-02-21T09:56:24;94459.03;;;11.58;55.57
76086;BME280;64791;0.000;0.000;2024-02-21T09:58:50;94461.94;;;11.52;55.47
76086;BME280;64791;0.000;0.000;2024-02-21T10:01:16;94458.44;;;11.52;55.70
76086;BME280;64791;0.000;0.000;2024-02-21T10:03:42;94456.22;;;11.50;55.77
76086;BME280;64791;0.000;0.000;2024-02-21T10:06:09;94467.25;;;11.50;55.84
76086;BME280;64791;0.000;0.000;2024-02-21T10:08:34;94466.94;;;11.54;55.24
76086;BME280;64791;0.000;0.000;2024-02-21T10:11:00;94462.13;;;11.54;55.59
76086;BME280;64791;0.000;0.000;2024-02-21T10:13:27;94462.13;;;11.54;55.49
76086;BME280;64791;0.000;0.000;2024-02-21T10:16:00;94453.31;;;11.56;55.33
76086;BME280;64791;0.000;0.000;2024-02-21T10:18:26;94449.66;;;11.61;55.74
76086;BME280;64791;0.000;0.000;2024-02-21T10:20:59;94453.69;;;11.80;55.27
76086;BME280;64791;0.000;0.000;2024-02-21T10:23:25;94442.81;;;12.39;53.69
76086;BME280;64791;0.000;0.000;2024-02-21T10:25:50;94443.81;;;12.56;53.18
76086;BME280;64791;0.000;0.000;2024-02-21T10:28:17;94437.06;;;12.88;52.89
76086;BME280;64791;0.000;0.000;2024-02-21T10:30:54;94431.00;;;12.97;52.77
76086;BME280;64791;0.000;0.000;2024-02-21T10:33:19;94424.03;;;13.11;52.74
76086;BME280;64791;0.000;0.000;2024-02-21T10:35:46;94417.75;;;14.08;51.10
76086;BME280;64791;0.000;0.000;2024-02-21T10:38:12;94410.91;;;14.72;49.61
76086;BME280;64791;0.000;0.000;2024-02-21T10:40:38;94409.84;;;14.92;49.33
76086;BME280;64791;0.000;0.000;2024-02-21T10:43:04;94402.63;;;14.96;49.18
76086;BME280;64791;0.000;0.000;2024-02-21T10:45:31;94401.34;;;14.90;49.35
76086;BME280;64791;0.000;0.000;2024-02-21T10:48:02;94401.34;;;14.90;49.17
76086;BME280;64791;0.000;0.000;2024-02-21T10:50:31;94390.31;;;15.07;49.00
76086;BME280;64791;0.000;0.000;2024-02-21T10:53:02;94390.53;;;15.58;47.85
76086;BME280;64791;0.000;0.000;2024-02-21T10:55:37;94384.94;;;15.83;47.72
76086;BME280;64791;0.000;0.000;2024-02-21T10:58:04;94380.94;;;16.11;47.71
76086;BME280;64791;0.000;0.000;2024-02-21T11:00:30;94381.53;;;16.09;47.14
76086;BME280;64791;0.000;0.000;2024-02-21T11:02:57;94379.88;;;15.89;47.34
76086;BME280;64791;0.000;0.000;2024-02-21T11:05:23;94375.69;;;15.80;47.53
76086;BME280;64791;0.000;0.000;2024-02-21T11:07:49;94373.50;;;15.96;47.41
76086;BME280;64791;0.000;0.000;2024-02-21T11:10:25;94373.50;;;16.30;46.90
76086;BME280;64791;0.000;0.000;2024-02-21T11:13:07;94370.38;;;16.60;46.39
76086;BME280;64791;0.000;0.000;2024-02-21T11:15:33;94371.00;;;17.12;45.63
76086;BME280;64791;0.000;0.000;2024-02-21T11:17:59;94369.03;;;17.05;45.53
76086;BME280;64791;0.000;0.000;2024-02-21T11:22:59;94375.28;;;16.96;46.03
76086;BME280;64791;0.000;0.000;2024-02-21T11:25:26;94364.81;;;16.87;45.95
76086;BME280;64791;0.000;0.000;2024-02-21T11:28:02;94359.88;;;16.95;45.85
76086;BME280;64791;0.000;0.000;2024-02-21T11:30:30;94361.81;;;17.02;46.25
76086;BME280;64791;0.000;0.000;2024-02-21T11:32:59;94348.63;;;17.39;45.72
76086;BME280;64791;0.000;0.000;2024-02-21T11:35:25;94346.84;;;17.34;46.02
76086;BME280;64791;0.000;0.000;2024-02-21T11:37:56;94348.44;;;17.27;46.16
76086;BME280;64791;0.000;0.000;2024-02-21T11:40:21;94350.59;;;17.19;46.00
76086;BME280;64791;0.000;0.000;2024-02-21T11:42:48;94340.72;;;17.09;46.03
76086;BME280;64791;0.000;0.000;2024-02-21T11:45:14;94334.66;;;17.29;45.84
76086;BME280;64791;0.000;0.000;2024-02-21T11:47:42;94337.78;;;17.43;46.15
76086;BME280;64791;0.000;0.000;2024-02-21T11:50:10;94331.69;;;17.54;45.61
76086;BME280;64791;0.000;0.000;2024-02-21T11:52:36;94323.19;;;17.71;45.42
76086;BME280;64791;0.000;0.000;2024-02-21T11:55:02;94315.41;;;17.79;45.43
76086;BME280;64791;0.000;0.000;2024-02-21T11:57:30;94319.25;;;18.03;45.55
76086;BME280;64791;0.000;0.000;2024-02-21T11:59:55;94316.75;;;18.07;45.28
76086;BME280;64791;0.000;0.000;2024-02-21T12:02:21;94311.03;;;17.95;44.97
76086;BME280;64791;0.000;0.000;2024-02-21T12:04:47;94311.16;;;17.78;45.49
76086;BME280;64791;0.000;0.000;2024-02-21T12:07:14;94309.25;;;17.62;46.27
76086;BME280;64791;0.000;0.000;2024-02-21T12:09:41;94310.38;;;17.49;46.13
76086;BME280;64791;0.000;0.000;2024-02-21T12:12:07;94308.69;;;17.36;46.58
76086;BME280;64791;0.000;0.000;2024-02-21T12:14:34;94301.78;;;17.28;46.50
76086;BME280;64791;0.000;0.000;2024-02-21T12:17:00;94293.25;;;17.16;46.45
76086;BME280;64791;0.000;0.000;2024-02-21T12:19:28;94298.78;;;17.07;46.71
76086;BME280;64791;0.000;0.000;2024-02-21T12:21:54;94299.47;;;16.98;46.71
76086;BME280;64791;0.000;0.000;2024-02-21T12:24:27;94295.16;;;16.87;46.97
76086;BME280;64791;0.000;0.000;2024-02-21T12:26:53;94288.97;;;16.79;46.78
76086;BME280;64791;0.000;0.000;2024-02-21T12:29:22;94292.03;;;16.74;47.10
76086;BME280;64791;0.000;0.000;2024-02-21T12:31:50;94295.38;;;16.72;47.36
76086;BME280;64791;0.000;0.000;2024-02-21T12:34:15;94289.41;;;16.76;47.08
76086;BME280;64791;0.000;0.000;2024-02-21T12:36:42;94284.88;;;16.80;47.18
76086;BME280;64791;0.000;0.000;2024-02-21T12:39:08;94290.19;;;16.86;46.97
76086;BME280;64791;0.000;0.000;2024-02-21T12:41:35;94286.50;;;16.83;46.83
76086;BME280;64791;0.000;0.000;2024-02-21T12:44:06;94284.88;;;16.80;46.84
76086;BME280;64791;0.000;0.000;2024-02-21T12:46:35;94278.66;;;16.72;46.56
76086;BME280;64791;0.000;0.000;2024-02-21T12:49:01;94276.75;;;16.65;46.21
76086;BME280;64791;0.000;0.000;2024-02-21T12:51:27;94276.25;;;16.59;45.99
76086;BME280;64791;0.000;0.000;2024-02-21T12:53:53;94277.50;;;16.48;46.26
76086;BME280;64791;0.000;0.000;2024-02-21T12:56:18;94273.75;;;16.36;46.30
76086;BME280;64791;0.000;0.000;2024-02-21T12:58:44;94277.66;;;16.24;45.92
76086;BME280;64791;0.000;0.000;2024-02-21T13:01:10;94273.31;;;16.13;46.38
76086;BME280;64791;0.000;0.000;2024-02-21T13:03:36;94269.16;;;16.05;46.27
76086;BME280;64791;0.000;0.000;2024-02-21T13:06:03;94277.59;;;15.97;46.35
76086;BME280;64791;0.000;0.000;2024-02-21T13:08:29;94274.75;;;15.88;46.09
76086;BME280;64791;0.000;0.000;2024-02-21T13:10:54;94262.22;;;15.79;46.31
76086;BME280;64791;0.000;0.000;2024-02-21T13:13:20;94270.31;;;15.67;46.39
76086;BME280;64791;0.000;0.000;2024-02-21T13:15:45;94268.59;;;15.55;45.76
76086;BME280;64791;0.000;0.000;2024-02-21T13:18:11;94276.09;;;15.45;46.19